createdAt,value
2022-11-16T00:02:14.173Z,16.27
2022-11-16T00:04:42.709Z,13.10
2022-11-16T00:07:11.176Z,12.03
2022-11-16T00:09:40.486Z,11.07
2022-11-16T00:12:11.402Z,13.97
2022-11-16T00:14:39.578Z,12.73
2022-11-16T00:17:09.207Z,13.93
2022-11-16T00:19:39.739Z,11.87
2022-11-16T00:22:07.897Z,13.93
2022-11-16T00:24:36.062Z,11.87
2022-11-16T00:27:04.219Z,12.93
2022-11-16T00:29:32.358Z,14.07
2022-11-16T00:32:03.504Z,13.97
2022-11-16T00:34:33.022Z,13.17
2022-11-16T00:37:01.113Z,16.37
2022-11-16T00:39:29.487Z,12.50
2022-11-16T00:41:57.755Z,16.80
2022-11-16T00:44:25.903Z,12.67
2022-11-16T00:46:53.989Z,16.17
2022-11-16T00:49:22.196Z,15.07
2022-11-16T00:51:51.733Z,15.47
2022-11-16T00:54:22.353Z,15.90
2022-11-16T00:56:50.583Z,14.77
2022-11-16T00:59:20.773Z,15.23
2022-11-16T01:01:49.119Z,14.80
2022-11-16T01:04:17.251Z,17.13
2022-11-16T01:06:52.105Z,15.50
2022-11-16T01:09:20.379Z,17.10
2022-11-16T01:12:05.886Z,13.93
2022-11-16T01:14:34.269Z,14.50
2022-11-16T01:17:03.443Z,15.20
2022-11-16T01:19:31.734Z,14.80
2022-11-16T01:22:01.298Z,18.67
2022-11-16T01:24:29.641Z,18.40
2022-11-16T01:26:58.640Z,14.30
2022-11-16T01:29:26.919Z,16.63
2022-11-16T01:31:55.226Z,17.53
2022-11-16T01:34:24.554Z,19.17
2022-11-16T01:36:52.673Z,14.50
2022-11-16T01:39:22.227Z,14.63
2022-11-16T01:41:50.469Z,13.10
2022-11-16T01:45:01.784Z,13.57
2022-11-16T01:47:29.968Z,14.00
2022-11-16T01:50:02.546Z,13.03
2022-11-16T01:52:32.077Z,14.30
2022-11-16T01:55:04.720Z,13.97
2022-11-16T01:57:34.123Z,15.30
2022-11-16T02:00:03.451Z,14.07
2022-11-16T02:02:31.725Z,13.47
2022-11-16T02:05:00.093Z,13.47
2022-11-16T02:07:55.676Z,13.73
2022-11-16T02:10:31.161Z,15.93
2022-11-16T02:13:15.585Z,13.87
2022-11-16T02:15:49.346Z,12.87
2022-11-16T02:18:25.979Z,13.20
2022-11-16T02:21:02.026Z,15.20
2022-11-16T02:24:05.421Z,13.10
2022-11-16T02:27:07.412Z,15.20
2022-11-16T02:29:37.857Z,11.53
2022-11-16T02:32:08.721Z,13.40
2022-11-16T02:34:39.265Z,14.27
2022-11-16T02:37:07.887Z,14.13
2022-11-16T02:39:36.048Z,14.90
2022-11-16T02:42:04.191Z,14.77
2022-11-16T02:44:33.981Z,13.83
2022-11-16T02:47:05.653Z,14.50
2022-11-16T02:49:35.267Z,13.53
2022-11-16T02:52:04.748Z,13.63
2022-11-16T02:54:35.685Z,13.03
2022-11-16T02:57:26.703Z,15.07
2022-11-16T02:59:55.873Z,14.73
2022-11-16T03:02:26.673Z,12.93
2022-11-16T03:05:00.113Z,12.77
2022-11-16T03:07:30.283Z,14.03
2022-11-16T03:09:58.594Z,14.87
2022-11-16T03:12:28.657Z,14.10
2022-11-16T03:15:00.961Z,14.80
2022-11-16T03:17:31.591Z,14.40
2022-11-16T03:20:04.466Z,10.60
2022-11-16T03:22:34.802Z,11.13
2022-11-16T03:25:09.515Z,12.27
2022-11-16T03:27:39.212Z,14.70
2022-11-16T03:30:08.261Z,12.93
2022-11-16T03:32:41.373Z,12.70
2022-11-16T03:35:15.653Z,14.60
2022-11-16T03:37:46.064Z,13.27
2022-11-16T03:40:14.312Z,17.03
2022-11-16T03:42:43.691Z,14.47
2022-11-16T03:45:13.719Z,17.50
2022-11-16T03:47:43.446Z,17.17
2022-11-16T03:50:11.874Z,18.90
2022-11-16T03:52:40.197Z,16.53
2022-11-16T03:55:09.424Z,18.67
2022-11-16T03:57:37.664Z,16.90
2022-11-16T04:00:06.894Z,14.73
2022-11-16T04:02:35.128Z,14.87
2022-11-16T04:05:24.484Z,17.43
2022-11-16T04:08:13.145Z,15.40
2022-11-16T04:10:58.712Z,15.53
2022-11-16T04:13:46.845Z,16.87
2022-11-16T04:16:50.883Z,15.37
2022-11-16T04:19:36.646Z,18.03
2022-11-16T04:22:24.309Z,18.83
2022-11-16T04:24:53.967Z,17.53
2022-11-16T04:27:39.557Z,17.67
2022-11-16T04:30:13.167Z,16.87
2022-11-16T04:32:58.532Z,19.30
2022-11-16T04:35:42.062Z,16.70
2022-11-16T04:38:11.696Z,17.80
2022-11-16T04:40:40.054Z,14.50
2022-11-16T04:43:07.511Z,16.90
2022-11-16T04:45:54.150Z,16.43
2022-11-16T04:48:22.280Z,19.73
2022-11-16T04:50:50.493Z,16.13
2022-11-16T04:53:22.543Z,16.80
2022-11-16T04:55:57.991Z,13.83
2022-11-16T04:58:29.433Z,12.40
2022-11-16T05:00:57.639Z,13.27
2022-11-16T05:03:25.936Z,13.40
2022-11-16T05:05:57.115Z,12.37
2022-11-16T05:08:26.725Z,13.30
2022-11-16T05:10:54.985Z,17.47
2022-11-16T05:13:23.212Z,16.17
2022-11-16T05:15:51.887Z,14.03
2022-11-16T05:18:25.354Z,13.63
2022-11-16T05:21:01.295Z,21.67
2022-11-16T05:23:50.646Z,15.50
2022-11-16T05:26:20.199Z,15.30
2022-11-16T05:28:48.364Z,14.90
2022-11-16T05:31:16.641Z,15.17
2022-11-16T05:33:49.891Z,18.77
2022-11-16T05:36:20.076Z,18.17
2022-11-16T05:38:56.250Z,17.90
2022-11-16T05:41:27.163Z,12.77
2022-11-16T05:43:56.043Z,14.07
2022-11-16T05:46:31.220Z,17.57
2022-11-16T05:49:03.023Z,23.80
2022-11-16T05:51:31.301Z,20.27
2022-11-16T05:54:06.606Z,16.93
2022-11-16T05:56:36.282Z,20.30
2022-11-16T05:59:16.322Z,15.30
2022-11-16T06:02:04.013Z,18.77
2022-11-16T06:04:32.105Z,17.27
2022-11-16T06:07:00.377Z,17.07
2022-11-16T06:09:30.117Z,15.07
2022-11-16T06:11:58.729Z,10.50
2022-11-16T06:14:27.141Z,13.40
2022-11-16T06:17:02.286Z,20.93
2022-11-16T06:19:33.028Z,14.77
2022-11-16T06:22:04.151Z,13.20
2022-11-16T06:24:35.174Z,13.00
2022-11-16T06:27:06.224Z,12.00
2022-11-16T06:29:34.938Z,11.57
2022-11-16T06:32:03.103Z,10.30
2022-11-16T06:34:31.508Z,10.23
2022-11-16T06:37:08.591Z,14.37
2022-11-16T06:39:38.263Z,14.47
2022-11-16T06:42:06.598Z,11.43
2022-11-16T06:44:39.378Z,17.20
2022-11-16T06:47:09.156Z,11.93
2022-11-16T06:49:37.373Z,10.93
2022-11-16T06:52:07.281Z,11.50
2022-11-16T06:54:35.537Z,12.30
2022-11-16T06:57:18.705Z,13.47
2022-11-16T06:59:49.018Z,16.00
2022-11-16T07:02:17.376Z,17.37
2022-11-16T07:04:45.621Z,15.67
2022-11-16T07:07:18.379Z,16.40
2022-11-16T07:09:49.287Z,13.27
2022-11-16T07:12:22.891Z,12.37
2022-11-16T07:14:51.594Z,15.83
2022-11-16T07:17:23.486Z,11.60
2022-11-16T07:19:52.522Z,9.27
2022-11-16T07:22:20.807Z,11.40
2022-11-16T07:24:49.021Z,14.70
2022-11-16T07:27:17.167Z,16.63
2022-11-16T07:29:46.714Z,11.53
2022-11-16T07:32:14.880Z,13.33
2022-11-16T07:34:43.108Z,10.87
2022-11-16T07:37:11.286Z,10.33
2022-11-16T07:39:39.524Z,7.83
2022-11-16T07:42:12.363Z,12.03
2022-11-16T07:44:41.855Z,5.90
2022-11-16T07:47:11.372Z,10.20
2022-11-16T07:49:39.847Z,7.23
2022-11-16T07:52:12.482Z,7.43
2022-11-16T07:54:41.009Z,11.03
2022-11-16T07:57:09.192Z,6.87
2022-11-16T07:59:37.445Z,12.53
2022-11-16T08:02:06.033Z,11.43
2022-11-16T08:04:35.687Z,8.70
2022-11-16T08:07:05.319Z,7.77
2022-11-16T08:09:34.555Z,11.97
2022-11-16T08:12:02.681Z,6.23
2022-11-16T08:14:30.957Z,6.13
2022-11-16T08:16:59.222Z,6.63
2022-11-16T08:19:27.369Z,6.20
2022-11-16T08:21:56.875Z,10.27
2022-11-16T08:24:26.953Z,7.17
2022-11-16T08:26:57.217Z,6.93
2022-11-16T08:29:25.693Z,5.40
2022-11-16T08:31:53.872Z,9.80
2022-11-16T08:34:23.255Z,6.97
2022-11-16T08:36:51.503Z,7.30
2022-11-16T08:39:22.268Z,11.80
2022-11-16T08:41:50.453Z,12.83
2022-11-16T08:44:18.619Z,9.93
2022-11-16T08:46:46.735Z,7.57
2022-11-16T08:49:15.106Z,8.00
2022-11-16T08:51:43.306Z,4.03
2022-11-16T08:54:13.870Z,12.43
2022-11-16T08:56:43.479Z,10.10
2022-11-16T08:59:20.075Z,9.17
2022-11-16T09:01:50.118Z,13.10
2022-11-16T09:04:18.773Z,6.03
2022-11-16T09:06:46.995Z,9.77
2022-11-16T09:09:15.141Z,14.93
2022-11-16T09:11:44.973Z,7.53
2022-11-16T09:14:13.400Z,7.60
2022-11-16T09:16:41.580Z,11.57
2022-11-16T09:19:10.861Z,7.40
2022-11-16T09:21:45.700Z,9.37
2022-11-16T09:24:16.888Z,10.10
2022-11-16T09:26:46.679Z,6.57
2022-11-16T09:29:15.624Z,7.63
2022-11-16T09:31:43.794Z,6.80
2022-11-16T09:34:12.161Z,9.63
2022-11-16T09:36:40.449Z,6.33
2022-11-16T09:42:29.335Z,8.73
2022-11-16T09:45:04.879Z,11.37
2022-11-16T09:47:44.836Z,8.37
2022-11-16T09:50:30.727Z,9.80
2022-11-16T09:53:01.084Z,9.57
2022-11-16T09:55:33.637Z,9.97
2022-11-16T09:58:13.011Z,6.40
2022-11-16T10:00:41.801Z,8.80
2022-11-16T10:03:14.263Z,10.80
2022-11-16T10:05:44.958Z,8.87
2022-11-16T10:08:18.790Z,6.63
2022-11-16T10:10:51.800Z,9.30
2022-11-16T10:13:32.068Z,8.53
2022-11-16T10:16:03.750Z,11.47
2022-11-16T10:18:59.897Z,6.93
2022-11-16T10:21:40.686Z,6.17
2022-11-16T10:24:25.228Z,10.27
2022-11-16T10:26:59.479Z,7.07
2022-11-16T10:29:37.008Z,11.10
2022-11-16T10:32:16.474Z,11.50
2022-11-16T10:35:13.383Z,8.17
2022-11-16T10:38:15.202Z,9.13
2022-11-16T10:41:46.396Z,6.70
2022-11-16T10:57:01.559Z,7.53
2022-11-16T11:11:51.093Z,6.37
2022-11-16T13:45:53.670Z,4.70
2022-11-16T13:48:24.580Z,9.63
2022-11-16T13:50:55.050Z,4.77
2022-11-16T13:56:25.573Z,7.17
2022-11-16T13:58:57.382Z,7.50
2022-11-16T14:01:26.660Z,4.00
2022-11-16T14:04:35.794Z,6.57
2022-11-16T14:07:09.083Z,4.60
2022-11-16T14:09:50.507Z,5.07
2022-11-16T14:12:49.769Z,3.70
2022-11-16T14:15:28.434Z,6.53
2022-11-16T14:17:58.446Z,6.97
2022-11-16T14:20:43.716Z,4.93
2022-11-16T14:23:17.889Z,4.63
2022-11-16T14:25:50.459Z,7.93
2022-11-16T14:28:28.927Z,4.27
2022-11-16T14:31:02.444Z,6.43
2022-11-16T14:33:35.079Z,6.33
2022-11-16T14:36:09.604Z,6.00
2022-11-16T14:38:39.024Z,5.93
2022-11-16T14:41:08.004Z,6.33
2022-11-16T14:43:39.855Z,5.20
2022-11-16T14:46:10.019Z,3.87
2022-11-16T14:48:44.400Z,11.63
2022-11-16T14:51:15.470Z,5.60
2022-11-16T14:53:53.983Z,6.43
2022-11-16T14:56:28.058Z,3.77
2022-11-16T14:58:57.126Z,5.03
2022-11-16T15:01:26.124Z,8.07
2022-11-16T15:03:56.498Z,7.43
2022-11-16T15:06:26.569Z,8.37
2022-11-16T15:08:55.684Z,5.67
2022-11-16T15:11:25.825Z,7.37
2022-11-16T15:13:54.358Z,6.63
2022-11-16T15:16:22.500Z,5.50
2022-11-16T15:19:00.545Z,3.77
2022-11-16T15:21:39.257Z,7.87
2022-11-16T15:24:29.526Z,6.70
2022-11-16T15:27:03.355Z,7.50
2022-11-16T15:29:34.646Z,7.60
2022-11-16T15:32:04.515Z,6.40
2022-11-16T15:34:33.275Z,9.80
2022-11-16T15:37:02.806Z,8.83
2022-11-16T15:39:34.259Z,4.80
2022-11-16T15:42:04.249Z,5.00
2022-11-16T15:44:35.506Z,7.73
2022-11-16T15:47:05.814Z,3.40
2022-11-16T15:49:39.315Z,15.23
2022-11-16T15:52:08.948Z,12.20
2022-11-16T15:54:53.107Z,3.30
2022-11-16T15:57:25.649Z,2.87
2022-11-16T15:59:55.643Z,5.73
2022-11-16T16:02:24.841Z,7.23
2022-11-16T16:04:53.067Z,3.37
2022-11-16T16:07:38.173Z,6.87
2022-11-16T16:10:31.055Z,5.73
2022-11-16T16:13:00.650Z,6.00
2022-11-16T16:15:34.392Z,4.57
2022-11-16T16:18:03.058Z,5.53
2022-11-16T16:20:32.485Z,8.10
2022-11-16T16:23:08.976Z,8.30
2022-11-16T16:25:37.325Z,8.30
2022-11-16T16:28:05.445Z,9.80
2022-11-16T16:30:39.629Z,4.00
2022-11-16T16:33:07.787Z,5.77
2022-11-16T16:35:36.689Z,2.37
2022-11-16T16:38:11.408Z,10.73
2022-11-16T16:40:42.439Z,7.70
2022-11-16T16:43:10.538Z,6.07
2022-11-16T16:45:46.486Z,5.87
2022-11-16T16:48:15.068Z,3.57
2022-11-16T16:50:45.268Z,5.07
2022-11-16T16:53:15.366Z,5.67
2022-11-16T16:55:43.766Z,5.33
2022-11-16T16:58:12.683Z,11.33
2022-11-16T17:00:43.118Z,8.90
2022-11-16T17:03:14.378Z,5.33
2022-11-16T17:05:42.764Z,4.40
2022-11-16T17:08:11.247Z,11.67
2022-11-16T17:10:42.433Z,7.77
2022-11-16T17:13:11.707Z,4.90
2022-11-16T17:15:39.966Z,4.30
2022-11-16T17:18:08.239Z,13.03
2022-11-16T17:20:37.552Z,4.60
2022-11-16T17:23:06.144Z,4.57
2022-11-16T17:25:39.605Z,6.87
2022-11-16T17:28:09.218Z,4.70
2022-11-16T17:30:37.496Z,3.63
2022-11-16T17:33:06.987Z,4.47
2022-11-16T17:35:36.225Z,8.27
2022-11-16T17:38:04.797Z,7.83
2022-11-16T17:40:32.993Z,5.03
2022-11-16T17:43:01.098Z,5.13
2022-11-16T17:45:30.588Z,6.63
2022-11-16T17:47:58.689Z,7.67
2022-11-16T17:50:27.893Z,12.00
2022-11-16T17:52:56.036Z,10.33
2022-11-16T17:55:25.793Z,4.97
2022-11-16T17:57:55.848Z,9.03
2022-11-16T18:00:24.572Z,8.53
2022-11-16T18:02:55.120Z,6.27
2022-11-16T18:05:23.766Z,11.40
2022-11-16T18:07:52.833Z,9.47
2022-11-16T18:10:21.540Z,7.20
2022-11-16T18:12:49.934Z,6.50
2022-11-16T18:15:37.787Z,9.30
2022-11-16T18:18:10.587Z,9.93
2022-11-16T18:20:38.729Z,6.60
2022-11-16T18:23:06.886Z,8.13
2022-11-16T18:25:36.734Z,6.13
2022-11-16T18:28:05.287Z,8.07
2022-11-16T18:30:33.463Z,11.20
2022-11-16T18:33:01.641Z,12.57
2022-11-16T18:35:35.237Z,9.00
2022-11-16T18:38:03.603Z,10.63
2022-11-16T18:40:31.969Z,4.93
2022-11-16T18:43:00.220Z,5.37
2022-11-16T18:45:28.626Z,6.37
2022-11-16T18:47:57.004Z,7.47
2022-11-16T18:50:26.990Z,5.53
2022-11-16T18:52:57.935Z,11.00
2022-11-16T18:55:30.164Z,6.67
2022-11-16T18:57:59.669Z,6.63
2022-11-16T19:00:27.917Z,7.40
2022-11-16T19:02:56.176Z,8.03
2022-11-16T19:05:24.480Z,6.70
2022-11-16T19:07:52.754Z,6.83
2022-11-16T19:10:25.564Z,4.80
2022-11-16T19:12:53.750Z,2.97
2022-11-16T19:15:22.217Z,2.87
2022-11-16T19:18:14.654Z,4.73
2022-11-16T19:20:44.280Z,7.97
2022-11-16T19:23:18.802Z,4.13
2022-11-16T19:25:48.495Z,4.53
2022-11-16T19:28:18.116Z,7.40
2022-11-16T19:30:47.755Z,7.40
2022-11-16T19:33:16.226Z,6.37
2022-11-16T19:35:44.461Z,7.50
2022-11-16T19:38:14.954Z,4.83
2022-11-16T19:40:45.049Z,4.30
2022-11-16T19:43:14.894Z,5.50
2022-11-16T19:45:48.580Z,4.13
2022-11-16T19:48:17.128Z,4.73
2022-11-16T19:50:46.642Z,4.97
2022-11-16T19:53:15.752Z,3.63
2022-11-16T19:55:44.861Z,9.93
2022-11-16T19:58:19.514Z,5.43
2022-11-16T20:00:51.562Z,6.63
2022-11-16T20:03:26.969Z,7.43
2022-11-16T20:06:11.107Z,3.97
2022-11-16T20:08:39.451Z,4.67
2022-11-16T20:11:16.833Z,10.27
2022-11-16T20:13:47.179Z,5.07
2022-11-16T20:16:20.513Z,7.47
2022-11-16T20:18:48.770Z,1.60
2022-11-16T20:21:20.894Z,2.20
2022-11-16T20:23:49.106Z,4.27
2022-11-16T20:26:17.367Z,3.13
2022-11-16T20:28:47.081Z,5.63
2022-11-16T20:31:24.066Z,5.93
2022-11-16T20:33:52.956Z,5.00
2022-11-16T20:36:22.806Z,3.60
2022-11-16T20:38:51.338Z,3.97
2022-11-16T20:41:23.368Z,3.83
2022-11-16T20:43:53.992Z,4.00
2022-11-16T20:46:25.084Z,3.40
2022-11-16T20:48:53.507Z,2.13
2022-11-16T20:51:25.941Z,2.63
2022-11-16T20:53:55.720Z,3.87
2022-11-16T20:56:24.065Z,3.33
2022-11-16T20:58:53.671Z,18.67
2022-11-16T21:01:28.427Z,2.97
2022-11-16T21:03:56.891Z,3.17
2022-11-16T21:06:25.413Z,3.30
2022-11-16T21:08:53.670Z,3.87
2022-11-16T21:11:23.223Z,4.17
2022-11-16T21:14:08.629Z,2.67
2022-11-16T21:16:38.774Z,4.20
2022-11-16T21:19:07.053Z,1.60
2022-11-16T21:21:37.611Z,2.77
2022-11-16T21:24:11.280Z,2.97
2022-11-16T21:26:39.524Z,1.80
2022-11-16T21:29:07.770Z,3.07
2022-11-16T21:31:42.899Z,5.17
2022-11-16T21:34:11.793Z,3.73
2022-11-16T21:36:40.081Z,1.33
2022-11-16T21:39:08.424Z,5.87
2022-11-16T21:41:37.060Z,2.60
2022-11-16T21:44:05.352Z,2.37
2022-11-16T21:46:37.518Z,3.23
2022-11-16T21:49:09.471Z,3.07
2022-11-16T21:51:38.333Z,4.20
2022-11-16T21:54:06.719Z,2.67
2022-11-16T21:56:35.001Z,3.37
2022-11-16T21:59:03.287Z,4.33
2022-11-16T22:01:52.872Z,2.53
2022-11-16T22:04:42.777Z,4.17
2022-11-16T22:07:32.166Z,2.53
2022-11-16T22:10:08.215Z,2.93
2022-11-16T22:12:38.087Z,3.03
2022-11-16T22:15:07.185Z,3.10
2022-11-16T22:17:35.389Z,3.27
2022-11-16T22:20:08.471Z,3.60
2022-11-16T22:22:37.801Z,3.63
2022-11-16T22:25:07.200Z,4.63
2022-11-16T22:27:47.039Z,3.17
2022-11-16T22:30:23.670Z,2.13
2022-11-16T22:32:57.420Z,1.93
2022-11-16T22:35:27.009Z,4.70
2022-11-16T22:37:56.056Z,8.70
2022-11-16T22:40:24.291Z,4.13
2022-11-16T22:42:53.713Z,5.80
2022-11-16T22:45:21.935Z,4.47
2022-11-16T22:47:54.768Z,5.80
2022-11-16T22:50:24.375Z,3.67
2022-11-16T22:52:54.038Z,4.73
2022-11-16T22:55:22.475Z,2.50
2022-11-16T22:57:50.969Z,5.57
2022-11-16T23:00:20.044Z,1.33
2022-11-16T23:02:48.519Z,3.93
2022-11-16T23:05:17.950Z,9.87
2022-11-16T23:07:46.306Z,4.37
2022-11-16T23:10:16.108Z,7.13
2022-11-16T23:13:01.922Z,1.87
2022-11-16T23:15:49.856Z,8.27
2022-11-16T23:18:19.600Z,7.13
2022-11-16T23:21:05.414Z,6.60
2022-11-16T23:23:50.848Z,3.50
2022-11-16T23:26:40.692Z,6.90
2022-11-16T23:29:10.055Z,7.07
2022-11-16T23:31:38.238Z,3.27
2022-11-16T23:34:06.605Z,5.40
2022-11-16T23:36:35.989Z,7.87
2022-11-16T23:39:04.231Z,3.43
2022-11-16T23:41:53.377Z,6.20
2022-11-16T23:44:21.573Z,7.23
2022-11-16T23:46:49.765Z,4.00
2022-11-16T23:49:18.092Z,4.03
2022-11-16T23:51:46.397Z,2.80
2022-11-16T23:54:14.580Z,5.00
2022-11-16T23:56:49.961Z,5.07
2022-11-16T23:59:18.129Z,3.90
